createdAt,value
2022-09-01T00:01:50.216Z,6.13
2022-09-01T00:04:20.610Z,5.85
2022-09-01T00:06:49.336Z,5.72
2022-09-01T00:09:19.692Z,4.97
2022-09-01T00:11:50.938Z,5.38
2022-09-01T00:14:29.546Z,7.65
2022-09-01T00:16:59.202Z,5.93
2022-09-01T00:19:27.509Z,6.03
2022-09-01T00:21:55.973Z,5.25
2022-09-01T00:24:26.119Z,5.90
2022-09-01T00:26:54.925Z,6.20
2022-09-01T00:29:25.327Z,5.25
2022-09-01T00:31:54.007Z,5.53
2022-09-01T00:34:23.665Z,6.82
2022-09-01T00:36:51.677Z,5.80
2022-09-01T00:39:19.628Z,5.50
2022-09-01T00:41:47.997Z,5.95
2022-09-01T00:44:18.988Z,6.80
2022-09-01T00:46:55.269Z,5.25
2022-09-01T00:49:30.112Z,5.70
2022-09-01T00:52:06.412Z,6.75
2022-09-01T00:54:37.089Z,5.18
2022-09-01T00:57:06.467Z,5.68
2022-09-01T00:59:34.580Z,6.03
2022-09-01T01:02:03.997Z,5.53
2022-09-01T01:04:32.224Z,5.85
2022-09-01T01:07:03.093Z,6.72
2022-09-01T01:09:34.506Z,7.57
2022-09-01T01:12:05.869Z,6.07
2022-09-01T01:14:36.938Z,6.78
2022-09-01T01:17:07.037Z,6.35
2022-09-01T01:19:59.035Z,6.55
2022-09-01T01:22:54.318Z,6.47
2022-09-01T01:25:23.964Z,5.38
2022-09-01T01:27:52.485Z,6.25
2022-09-01T01:30:20.967Z,6.18
2022-09-01T01:32:49.599Z,7.03
2022-09-01T01:35:23.414Z,6.40
2022-09-01T01:37:51.930Z,6.85
2022-09-01T01:40:22.690Z,6.68
2022-09-01T01:42:53.945Z,6.75
2022-09-01T01:45:24.152Z,6.78
2022-09-01T01:47:54.253Z,6.72
2022-09-01T01:50:23.606Z,7.25
2022-09-01T01:52:58.162Z,8.55
2022-09-01T01:55:29.066Z,7.10
2022-09-01T01:57:59.238Z,6.15
2022-09-01T02:00:32.301Z,5.82
2022-09-01T02:03:00.246Z,6.75
2022-09-01T02:08:02.164Z,4.35
2022-09-01T02:10:32.127Z,3.97
2022-09-01T02:13:07.277Z,4.25
2022-09-01T02:15:43.270Z,3.90
2022-09-01T02:18:14.216Z,4.05
2022-09-01T02:20:42.188Z,3.95
2022-09-01T02:26:05.008Z,3.30
2022-09-01T02:28:36.838Z,4.15
2022-09-01T02:31:09.049Z,4.32
2022-09-01T02:33:38.009Z,4.65
2022-09-01T02:36:09.797Z,3.97
2022-09-01T02:38:38.950Z,4.20
2022-09-01T02:41:07.901Z,4.25
2022-09-01T02:43:37.880Z,4.18
2022-09-01T02:46:06.369Z,3.88
2022-09-01T02:48:37.342Z,4.10
2022-09-01T02:51:07.995Z,3.97
2022-09-01T02:53:37.064Z,3.83
2022-09-01T02:56:09.527Z,3.53
2022-09-01T02:58:46.333Z,3.78
2022-09-01T03:01:21.176Z,3.80
2022-09-01T03:03:49.691Z,4.20
2022-09-01T03:06:19.325Z,3.97
2022-09-01T03:08:47.956Z,4.13
2022-09-01T03:11:15.924Z,3.65
2022-09-01T03:13:45.495Z,3.63
2022-09-01T03:16:13.927Z,3.85
2022-09-01T03:18:42.842Z,3.75
2022-09-01T03:21:15.058Z,4.00
2022-09-01T03:23:43.572Z,3.42
2022-09-01T03:26:11.486Z,4.10
2022-09-01T03:28:39.817Z,3.58
2022-09-01T03:31:09.742Z,4.18
2022-09-01T03:33:37.986Z,3.70
2022-09-01T03:36:14.938Z,3.67
2022-09-01T03:38:43.968Z,3.50
2022-09-01T03:41:13.230Z,3.38
2022-09-01T03:43:46.983Z,3.50
2022-09-01T03:46:21.699Z,3.90
2022-09-01T03:48:50.928Z,2.90
2022-09-01T03:51:22.848Z,4.57
2022-09-01T03:53:54.564Z,3.45
2022-09-01T03:56:24.778Z,4.07
2022-09-01T03:58:52.947Z,3.63
2022-09-01T04:01:22.607Z,3.95
2022-09-01T04:03:51.316Z,3.38
2022-09-01T04:06:20.419Z,3.38
2022-09-01T04:08:48.742Z,3.58
2022-09-01T04:11:19.051Z,3.17
2022-09-01T04:13:47.888Z,3.25
2022-09-01T04:16:35.017Z,3.42
2022-09-01T04:21:44.950Z,3.75
2022-09-01T04:24:14.790Z,4.45
2022-09-01T04:26:46.526Z,4.03
2022-09-01T04:29:14.524Z,4.47
2022-09-01T04:34:14.004Z,2.97
2022-09-01T04:36:43.717Z,2.97
2022-09-01T04:39:13.454Z,4.00
2022-09-01T04:41:46.264Z,3.72
2022-09-01T04:44:19.313Z,3.30
2022-09-01T04:46:48.457Z,3.33
2022-09-01T04:49:22.529Z,4.70
2022-09-01T04:51:53.898Z,3.22
2022-09-01T04:54:23.766Z,4.35
2022-09-01T04:56:55.052Z,3.88
2022-09-01T04:59:27.176Z,3.38
2022-09-01T05:01:57.628Z,3.90
2022-09-01T05:04:33.914Z,3.60
2022-09-01T05:07:03.510Z,21.38
2022-09-01T05:09:35.536Z,75.97
2022-09-01T05:12:15.563Z,18.00
2022-09-01T05:14:48.350Z,18.17
2022-09-01T05:17:17.240Z,6.82
2022-09-01T05:19:50.547Z,7.25
2022-09-01T05:22:22.275Z,5.05
2022-09-01T05:24:51.592Z,5.38
2022-09-01T05:27:23.993Z,5.47
2022-09-01T05:29:51.903Z,5.03
2022-09-01T05:32:21.920Z,8.10
2022-09-01T05:34:53.104Z,3.40
2022-09-01T05:37:21.649Z,3.75
2022-09-01T05:39:50.367Z,4.75
2022-09-01T05:42:18.380Z,3.88
2022-09-01T05:47:21.076Z,2.58
2022-09-01T05:49:49.919Z,3.67
2022-09-01T05:52:26.034Z,2.60
2022-09-01T05:54:55.603Z,2.83
2022-09-01T05:57:34.406Z,3.05
2022-09-01T06:00:03.443Z,3.45
2022-09-01T06:02:33.833Z,3.10
2022-09-01T06:05:01.919Z,3.17
2022-09-01T06:09:59.987Z,3.20
2022-09-01T06:12:28.977Z,3.42
2022-09-01T06:14:58.291Z,2.85
2022-09-01T06:17:30.062Z,3.45
2022-09-01T06:19:58.736Z,24.00
2022-09-01T06:22:29.063Z,2.42
2022-09-01T06:25:02.363Z,3.78
2022-09-01T06:27:30.910Z,2.63
2022-09-01T06:32:27.234Z,3.35
2022-09-01T06:34:58.323Z,2.65
2022-09-01T06:37:26.912Z,3.88
2022-09-01T06:39:54.632Z,4.13
2022-09-01T06:42:24.674Z,3.35
2022-09-01T06:44:52.658Z,3.97
2022-09-01T06:49:48.508Z,3.78
2022-09-01T06:54:44.425Z,16.48
2022-09-01T07:00:07.767Z,3.50
2022-09-01T07:03:44.588Z,4.78
2022-09-01T07:09:20.018Z,3.53
2022-09-01T07:16:30.187Z,3.78
2022-09-01T07:17:26.953Z,3.03
2022-09-01T07:19:56.023Z,3.58
2022-09-01T07:23:03.448Z,3.58
2022-09-01T07:25:13.129Z,59.75
2022-09-01T07:27:50.446Z,52.33
2022-09-01T07:30:19.664Z,12.50
2022-09-01T07:32:54.149Z,13.55
2022-09-01T07:35:24.033Z,4.15
2022-09-01T07:43:33.488Z,29.38
2022-09-01T07:51:45.565Z,3.95
2022-09-01T07:54:13.964Z,3.92
2022-09-01T07:56:41.961Z,4.00
2022-09-01T08:01:42.967Z,2.53
2022-09-01T08:04:12.291Z,3.15
2022-09-01T08:06:41.009Z,3.53
2022-09-01T08:09:11.917Z,3.13
2022-09-01T08:12:08.564Z,3.45
2022-09-01T08:14:36.542Z,11.95
2022-09-01T08:19:55.376Z,17.85
2022-09-01T08:22:25.605Z,22.85
2022-09-01T08:24:53.954Z,11.13
2022-09-01T08:27:22.317Z,9.93
2022-09-01T08:29:50.153Z,3.60
2022-09-01T08:32:17.960Z,49.30
2022-09-01T08:34:45.744Z,4.20
2022-09-01T08:37:15.105Z,3.80
2022-09-01T08:39:42.958Z,4.03
2022-09-01T08:44:51.770Z,3.55
2022-09-01T08:47:28.813Z,38.58
2022-09-01T08:50:01.704Z,11.18
2022-09-01T08:52:34.685Z,11.35
2022-09-01T08:55:08.365Z,48.05
2022-09-01T08:57:38.917Z,4.68
2022-09-01T09:00:09.532Z,3.72
2022-09-01T09:02:52.444Z,3.38
2022-09-01T09:05:32.028Z,4.20
2022-09-01T09:08:15.024Z,4.25
2022-09-01T09:10:53.030Z,3.72
2022-09-01T09:13:25.824Z,4.63
2022-09-01T09:16:13.187Z,4.35
2022-09-01T09:19:00.862Z,14.55
2022-09-01T09:21:33.682Z,4.47
2022-09-01T09:24:11.018Z,3.88
2022-09-01T09:26:42.546Z,12.05
2022-09-01T09:29:10.671Z,23.13
2022-09-01T09:34:19.907Z,14.43
2022-09-01T09:36:54.634Z,5.18
2022-09-01T09:39:24.796Z,14.63
2022-09-01T09:42:09.670Z,14.25
2022-09-01T09:44:44.902Z,16.77
2022-09-01T09:47:43.681Z,7.13
2022-09-01T09:50:17.911Z,43.88
2022-09-01T09:52:47.113Z,63.17
2022-09-01T09:55:26.705Z,47.53
2022-09-01T09:57:59.150Z,67.78
2022-09-01T10:00:29.270Z,76.72
2022-09-01T10:03:01.399Z,33.90
2022-09-01T10:05:39.747Z,94.85
2022-09-01T10:08:11.818Z,25.55
2022-09-01T10:10:44.245Z,65.07
2022-09-01T10:13:16.056Z,24.50
2022-09-01T10:15:49.900Z,22.73
2022-09-01T10:18:24.405Z,20.50
2022-09-01T10:21:01.743Z,18.15
2022-09-01T10:23:32.401Z,15.18
2022-09-01T10:26:06.714Z,13.07
2022-09-01T10:28:50.753Z,14.65
2022-09-01T10:31:20.207Z,15.13
2022-09-01T10:33:48.714Z,17.15
2022-09-01T10:36:18.079Z,21.90
2022-09-01T10:38:52.662Z,28.85
2022-09-01T10:41:59.720Z,35.08
2022-09-01T10:44:33.841Z,25.33
2022-09-01T10:47:06.228Z,34.58
2022-09-01T10:50:10.412Z,37.95
2022-09-01T10:53:05.593Z,72.35
2022-09-01T10:55:38.399Z,38.63
2022-09-01T11:02:22.897Z,34.75
2022-09-01T11:05:15.158Z,37.10
2022-09-01T11:08:01.466Z,36.85
2022-09-01T11:10:39.953Z,36.58
2022-09-01T11:13:37.124Z,65.15
2022-09-01T11:19:36.334Z,91.32
2022-09-01T11:24:55.994Z,54.40
2022-09-01T11:27:58.024Z,56.45
2022-09-01T11:30:36.884Z,54.60
2022-09-01T11:33:20.250Z,23.05
2022-09-01T11:35:48.069Z,23.85
2022-09-01T11:38:20.727Z,23.00
2022-09-01T11:40:57.049Z,21.15
2022-09-01T11:43:27.506Z,21.25
2022-09-01T11:46:08.007Z,22.02
2022-09-01T11:51:05.546Z,28.92
2022-09-01T11:53:35.011Z,47.15
2022-09-01T11:56:15.663Z,33.35
2022-09-01T11:58:43.859Z,50.85
2022-09-01T12:01:20.015Z,24.20
2022-09-01T12:03:49.697Z,18.85
2022-09-01T12:06:22.328Z,22.60
2022-09-01T12:08:57.698Z,21.00
2022-09-01T12:11:30.392Z,25.83
2022-09-01T12:14:01.319Z,23.40
2022-09-01T12:16:34.745Z,22.02
2022-09-01T12:19:03.660Z,17.48
2022-09-01T12:21:34.254Z,19.02
2022-09-01T12:24:14.845Z,17.40
2022-09-01T12:26:43.255Z,16.05
2022-09-01T12:29:13.890Z,15.23
2022-09-01T12:31:44.905Z,13.15
2022-09-01T12:34:26.724Z,11.43
2022-09-01T12:37:12.746Z,9.88
2022-09-01T12:39:42.741Z,9.05
2022-09-01T12:42:25.541Z,8.75
2022-09-01T12:44:55.642Z,8.98
2022-09-01T12:47:50.981Z,9.90
2022-09-01T12:50:44.138Z,9.18
2022-09-01T12:53:39.796Z,7.55
2022-09-01T12:56:25.194Z,10.15
2022-09-01T12:59:04.754Z,9.57
2022-09-01T13:01:35.013Z,8.60
2022-09-01T13:04:24.065Z,11.00
2022-09-01T13:06:52.783Z,10.57
2022-09-01T13:09:20.763Z,12.45
2022-09-01T13:14:36.579Z,11.90
2022-09-01T13:17:06.061Z,10.80
2022-09-01T13:19:43.653Z,21.95
2022-09-01T13:22:11.875Z,27.63
2022-09-01T13:24:40.239Z,19.10
2022-09-01T13:27:23.644Z,11.13
2022-09-01T13:29:52.593Z,36.22
2022-09-01T13:32:22.551Z,8.07
2022-09-01T13:34:53.636Z,4.45
2022-09-01T13:37:22.289Z,5.18
2022-09-01T13:39:50.894Z,8.77
2022-09-01T13:42:19.510Z,16.67
2022-09-01T13:44:48.585Z,24.88
2022-09-01T13:47:34.246Z,12.73
2022-09-01T13:50:09.199Z,7.47
2022-09-01T13:52:39.280Z,5.57
2022-09-01T13:55:09.060Z,11.85
2022-09-01T13:57:37.142Z,17.63
2022-09-01T14:00:10.843Z,9.93
2022-09-01T14:02:40.044Z,10.93
2022-09-01T14:05:11.214Z,12.40
2022-09-01T14:07:39.151Z,9.07
2022-09-01T14:10:08.894Z,7.88
2022-09-01T14:12:37.531Z,7.47
2022-09-01T14:15:17.051Z,7.22
2022-09-01T14:17:47.551Z,6.05
2022-09-01T14:20:19.535Z,5.82
2022-09-01T14:22:48.194Z,9.05
2022-09-01T14:25:16.836Z,12.70
2022-09-01T14:27:45.054Z,18.60
2022-09-01T14:30:16.471Z,27.33
2022-09-01T14:32:44.814Z,29.45
2022-09-01T14:35:12.995Z,30.67
2022-09-01T14:37:42.374Z,26.02
2022-09-01T14:40:16.624Z,22.05
2022-09-01T14:42:47.638Z,19.45
2022-09-01T14:45:18.488Z,14.90
2022-09-01T14:47:46.826Z,9.32
2022-09-01T14:50:17.213Z,11.13
2022-09-01T14:52:50.539Z,15.68
2022-09-01T14:55:18.904Z,19.63
2022-09-01T14:57:46.835Z,29.92
2022-09-01T15:00:15.403Z,37.15
2022-09-01T15:02:44.755Z,43.67
2022-09-01T15:05:13.934Z,35.50
2022-09-01T15:07:42.732Z,34.33
2022-09-01T15:10:18.132Z,35.75
2022-09-01T15:12:53.718Z,38.92
2022-09-01T15:15:22.831Z,39.50
2022-09-01T15:17:50.842Z,43.58
2022-09-01T15:20:36.146Z,42.92
2022-09-01T15:23:05.007Z,44.15
2022-09-01T15:25:34.887Z,39.85
2022-09-01T15:28:03.431Z,31.02
2022-09-01T15:30:31.510Z,26.60
2022-09-01T15:32:59.406Z,25.73
2022-09-01T15:35:30.565Z,23.33
2022-09-01T15:37:58.855Z,21.75
2022-09-01T15:40:27.683Z,19.55
2022-09-01T15:42:58.406Z,19.70
2022-09-01T15:45:28.790Z,20.73
2022-09-01T15:47:56.913Z,16.90
2022-09-01T15:50:27.584Z,17.70
2022-09-01T15:52:57.848Z,19.83
2022-09-01T15:55:28.699Z,17.98
2022-09-01T15:57:59.029Z,19.90
2022-09-01T16:00:28.569Z,16.90
2022-09-01T16:03:01.639Z,15.55
2022-09-01T16:05:30.484Z,15.38
2022-09-01T16:07:59.049Z,16.73
2022-09-01T16:10:27.582Z,15.55
2022-09-01T16:12:55.398Z,16.33
2022-09-01T16:15:26.212Z,15.88
2022-09-01T16:18:15.310Z,16.00
2022-09-01T16:20:55.584Z,14.70
2022-09-01T16:23:26.023Z,14.02
2022-09-01T16:25:54.746Z,14.23
2022-09-01T16:28:28.288Z,14.95
2022-09-01T16:31:03.421Z,14.40
2022-09-01T16:33:33.971Z,15.27
2022-09-01T16:36:17.231Z,16.10
2022-09-01T16:38:49.876Z,14.30
2022-09-01T16:41:39.765Z,16.85
2022-09-01T16:44:19.004Z,13.15
2022-09-01T16:46:57.452Z,12.57
2022-09-01T16:49:31.895Z,13.43
2022-09-01T16:52:05.486Z,15.15
2022-09-01T16:54:45.750Z,17.80
2022-09-01T16:57:23.570Z,19.38
2022-09-01T16:59:55.635Z,24.00
2022-09-01T17:02:38.516Z,24.42
2022-09-01T17:05:17.950Z,27.20
2022-09-01T17:07:52.403Z,32.30
2022-09-01T17:10:34.581Z,38.50
2022-09-01T17:13:16.500Z,42.13
2022-09-01T17:15:48.134Z,50.65
2022-09-01T17:18:23.303Z,64.05
2022-09-01T17:20:58.181Z,70.40
2022-09-01T17:23:30.751Z,76.72
2022-09-01T17:26:03.802Z,70.05
2022-09-01T17:28:37.196Z,67.30
2022-09-01T17:31:14.504Z,55.72
2022-09-01T17:34:02.526Z,45.65
2022-09-01T17:36:46.660Z,39.10
2022-09-01T17:39:32.864Z,35.35
2022-09-01T17:42:07.379Z,28.33
2022-09-01T17:44:45.421Z,28.15
2022-09-01T17:47:24.034Z,21.38
2022-09-01T17:50:01.180Z,31.02
2022-09-01T17:52:52.884Z,15.13
2022-09-01T17:55:34.985Z,10.27
2022-09-01T17:58:13.525Z,9.50
2022-09-01T18:00:50.011Z,7.93
2022-09-01T18:03:32.076Z,9.20
2022-09-01T18:06:06.003Z,9.10
2022-09-01T18:08:40.323Z,8.30
2022-09-01T18:11:12.723Z,10.13
2022-09-01T18:13:53.166Z,9.45
2022-09-01T18:16:25.753Z,10.25
2022-09-01T18:18:54.711Z,12.70
2022-09-01T18:21:27.791Z,11.05
2022-09-01T18:24:02.830Z,11.43
2022-09-01T18:26:36.248Z,14.23
2022-09-01T18:29:07.105Z,19.15
2022-09-01T18:31:53.753Z,19.90
2022-09-01T18:34:33.459Z,16.90
2022-09-01T18:37:10.441Z,15.93
2022-09-01T18:39:50.726Z,13.80
2022-09-01T18:42:26.498Z,8.95
2022-09-01T18:45:05.541Z,6.90
2022-09-01T18:47:36.754Z,7.93
2022-09-01T18:50:14.974Z,14.02
2022-09-01T18:52:58.602Z,5.78
2022-09-01T18:55:35.252Z,5.75
2022-09-01T18:58:09.213Z,4.32
2022-09-01T19:00:44.354Z,4.80
2022-09-01T19:03:21.630Z,4.20
2022-09-01T19:08:37.592Z,4.18
2022-09-01T19:11:14.785Z,4.78
2022-09-01T19:13:54.747Z,3.97
2022-09-01T19:16:34.225Z,4.45
2022-09-01T19:19:14.189Z,4.03
2022-09-01T19:21:44.474Z,4.68
2022-09-01T19:24:21.673Z,4.38
2022-09-01T19:26:53.702Z,5.60
2022-09-01T19:29:26.907Z,4.18
2022-09-01T19:31:59.862Z,5.20
2022-09-01T19:34:32.338Z,3.85
2022-09-01T19:37:02.388Z,4.35
2022-09-01T19:39:34.031Z,4.68
2022-09-01T19:42:07.217Z,4.72
2022-09-01T19:44:42.728Z,4.15
2022-09-01T19:47:15.627Z,4.05
2022-09-01T19:49:49.693Z,3.33
2022-09-01T19:52:32.334Z,3.90
2022-09-01T19:55:05.730Z,3.55
2022-09-01T19:57:40.895Z,4.32
2022-09-01T20:00:16.724Z,4.32
2022-09-01T20:02:50.832Z,4.88
2022-09-01T20:05:31.337Z,4.93
2022-09-01T20:08:03.995Z,5.97
2022-09-01T20:10:57.560Z,5.95
2022-09-01T20:13:38.099Z,5.72
2022-09-01T20:16:17.129Z,6.45
2022-09-01T20:18:50.062Z,3.53
2022-09-01T20:21:22.260Z,3.67
2022-09-01T20:23:56.953Z,3.55
2022-09-01T20:26:32.751Z,2.85
2022-09-01T20:29:04.451Z,3.13
2022-09-01T20:31:35.152Z,3.25
2022-09-01T20:34:10.097Z,2.55
2022-09-01T20:36:44.415Z,2.47
2022-09-01T20:42:09.492Z,2.90
2022-09-01T20:44:45.880Z,3.08
2022-09-01T20:47:14.155Z,2.88
2022-09-01T20:49:42.095Z,2.83
2022-09-01T20:52:15.141Z,3.42
2022-09-01T20:54:52.069Z,2.90
2022-09-01T20:57:35.293Z,3.30
2022-09-01T21:00:08.366Z,4.43
2022-09-01T21:02:46.166Z,3.45
2022-09-01T21:05:30.728Z,4.85
2022-09-01T21:08:20.313Z,5.28
2022-09-01T21:10:56.214Z,3.83
2022-09-01T21:13:49.149Z,2.40
2022-09-01T21:16:26.218Z,3.83
2022-09-01T21:19:04.889Z,2.95
2022-09-01T21:21:40.951Z,2.80
2022-09-01T21:24:08.763Z,2.65
2022-09-01T21:29:25.553Z,3.05
2022-09-01T21:31:53.599Z,3.28
2022-09-01T21:34:21.488Z,3.40
2022-09-01T21:39:18.474Z,3.22
2022-09-01T21:41:47.032Z,3.13
2022-09-01T21:44:17.144Z,3.45
2022-09-01T21:46:45.182Z,5.07
2022-09-01T21:49:14.261Z,5.10
2022-09-01T21:51:42.528Z,4.95
2022-09-01T21:54:11.112Z,3.53
2022-09-01T21:56:39.026Z,3.58
2022-09-01T22:01:37.084Z,4.15
2022-09-01T22:04:06.190Z,3.65
2022-09-01T22:06:34.834Z,4.57
2022-09-01T22:09:03.464Z,6.30
2022-09-01T22:11:49.152Z,7.13
2022-09-01T22:14:17.706Z,6.68
2022-09-01T22:16:47.968Z,9.90
2022-09-01T22:19:16.853Z,12.93
2022-09-01T22:21:45.146Z,12.82
2022-09-01T22:24:13.130Z,11.18
2022-09-01T22:26:48.223Z,7.35
2022-09-01T22:29:17.521Z,6.75
2022-09-01T22:31:46.942Z,7.40
2022-09-01T22:34:14.850Z,11.25
2022-09-01T22:36:45.906Z,13.20
2022-09-01T22:39:16.083Z,10.68
2022-09-01T22:41:44.019Z,11.73
2022-09-01T22:46:41.056Z,5.53
2022-09-01T22:49:10.582Z,5.43
2022-09-01T22:51:39.860Z,4.90
2022-09-01T22:54:09.353Z,5.72
2022-09-01T22:56:40.083Z,5.88
2022-09-01T22:59:10.186Z,5.10
2022-09-01T23:01:42.400Z,5.50
2022-09-01T23:04:13.910Z,5.60
2022-09-01T23:06:43.918Z,4.75
2022-09-01T23:09:12.598Z,5.13
2022-09-01T23:11:40.784Z,5.03
2022-09-01T23:14:08.593Z,5.25
2022-09-01T23:16:36.928Z,4.45
2022-09-01T23:19:06.230Z,4.10
2022-09-01T23:21:38.049Z,4.00
2022-09-01T23:24:07.181Z,4.22
2022-09-01T23:26:35.989Z,3.50
2022-09-01T23:29:05.155Z,3.45
2022-09-01T23:31:37.106Z,3.70
2022-09-01T23:34:06.916Z,3.05
2022-09-01T23:36:37.006Z,3.67
2022-09-01T23:39:05.819Z,3.25
2022-09-01T23:41:36.337Z,3.75
2022-09-01T23:44:06.204Z,3.58
2022-09-01T23:46:36.955Z,3.35
2022-09-01T23:49:05.655Z,3.47
2022-09-01T23:51:34.208Z,4.60
2022-09-01T23:54:03.578Z,3.45
2022-09-01T23:56:31.620Z,4.43
